Change the Weather History Date:

Tuesday, November 12, 2013

  Actual Average Record
Temperature  
Mean Temperature 20 °F -  
Max Temperature 26 °F 49 °F 64 °F (1999)
Min Temperature 14 °F 30 °F 10 °F (1996)
Degree Days  
Heating Degree Days 45    
Moisture  
Dew Point 12 °F    
Average Humidity 74    
Maximum Humidity 86    
Minimum Humidity 59    
Precipitation  
Precipitation 0.00 in - - ()
Sea Level Pressure  
Sea Level Pressure 30.69 in    
Wind  
Wind Speed 8 mph (NW)    
Max Wind Speed 14 mph    
Max Gust Speed 20 mph    
Visibility 10 miles    
Events      
Averages and records for this station are not official NWS values.
T = Trace of Precipitation, MM = Missing Value Source: NWS Daily Summary

Daily Weather History Graph

Daily Weather History Graph

Search for Another Location

Airport or City:

Trip Planner

Search our weather history database for the weather conditions in past years. The results will help you decide how hot, cold, wet, or windy it might be!

Date:

Astronomy

Nov. 12, 2013 Rise Set
Actual Time 6:51 AM CST 4:45 PM CST
Civil Twilight 6:21 AM CST 5:15 PM CST
Nautical Twilight 5:48 AM CST 5:49 PM CST
Astronomical Twilight 5:14 AM CST 6:22 PM CST
Moon 2:04 PM CST (11/12) 1:36 AM CST (11/12)
Length of Visible Light 10h 53m
Length of Day
9h 53m
Waxing Gibbous, 76% of the Moon is Illuminated
Nov 12
Waxing Gibbous
Nov 17
Full
Nov 25
Last Quarter
Dec 2
New
Dec 9
First Quarter

Hourly Weather History & Observations

Time (CST) Temp. Windchill Dew Point Humidity Pressure Visibility Wind Dir Wind Speed Gust Speed Precip Events Conditions
12:15 AM 17.6 °F 6.4 °F 12.2 °F 79% 30.63 in 10.0 mi NNW 9.2 mph - N/A   Clear
12:55 AM 17.6 °F 6.4 °F 12.2 °F 79% 30.63 in 10.0 mi NNW 9.2 mph - N/A   Clear
1:15 AM 15.8 °F 4.2 °F 10.4 °F 79% 30.63 in 10.0 mi NNW 9.2 mph - N/A   Clear
1:35 AM 17.6 °F 6.4 °F 10.4 °F 73% 30.63 in 10.0 mi NNW 9.2 mph - N/A   Clear
1:55 AM 17.6 °F 5.0 °F 12.2 °F 79% 30.64 in 10.0 mi NNW 11.5 mph - N/A   Clear
2:15 AM 17.6 °F 5.7 °F 12.2 °F 79% 30.65 in 10.0 mi NNW 10.4 mph - N/A   Clear
2:35 AM 17.6 °F 5.0 °F 10.4 °F 73% 30.65 in 10.0 mi NNW 11.5 mph - N/A   Clear
2:55 AM 17.6 °F 4.3 °F 10.4 °F 73% 30.66 in 10.0 mi NNW 12.7 mph 19.6 mph N/A   Clear
3:15 AM 17.6 °F 5.0 °F 10.4 °F 73% 30.67 in 10.0 mi NNW 11.5 mph - N/A   Clear
3:35 AM 17.6 °F 5.7 °F 10.4 °F 73% 30.67 in 10.0 mi NNW 10.4 mph - N/A   Clear
3:55 AM 17.6 °F 5.7 °F 10.4 °F 73% 30.68 in 10.0 mi NNW 10.4 mph - N/A   Clear
4:15 AM 15.8 °F 3.4 °F 10.4 °F 79% 30.69 in 10.0 mi NNW 10.4 mph - N/A   Clear
4:35 AM 15.8 °F 5.1 °F 10.4 °F 79% 30.69 in 10.0 mi NNW 8.1 mph - N/A   Clear
4:55 AM 15.8 °F 8.6 °F 10.4 °F 79% 30.71 in 10.0 mi NNW 4.6 mph - N/A   Clear
5:15 AM 15.8 °F 4.2 °F 10.4 °F 79% 30.72 in 10.0 mi NNW 9.2 mph - N/A   Clear
5:35 AM 15.8 °F 7.2 °F 10.4 °F 79% 30.72 in 10.0 mi North 5.8 mph - N/A   Clear
5:55 AM 14.0 °F - 8.6 °F 79% 30.73 in 10.0 mi Calm Calm - N/A   Clear
6:15 AM 14.0 °F 6.5 °F 8.6 °F 79% 30.73 in 10.0 mi NW 4.6 mph - N/A   Clear
6:35 AM 14.0 °F - 10.4 °F 86% 30.74 in 10.0 mi Calm Calm - N/A   Clear
6:55 AM 14.0 °F 6.5 °F 8.6 °F 79% 30.74 in 10.0 mi NW 4.6 mph - N/A   Clear
7:15 AM 14.0 °F 8.2 °F 8.6 °F 79% 30.75 in 10.0 mi NW 3.5 mph - N/A   Clear
7:35 AM 14.0 °F - 8.6 °F 79% 30.76 in 10.0 mi Calm Calm - N/A   Clear
7:55 AM 15.8 °F 8.6 °F 10.4 °F 79% 30.77 in 10.0 mi NW 4.6 mph - N/A   Clear
8:15 AM 15.8 °F 7.2 °F 10.4 °F 79% 30.77 in 10.0 mi NNW 5.8 mph - N/A   Clear
8:35 AM 17.6 °F 8.2 °F 12.2 °F 79% 30.78 in 10.0 mi NNW 6.9 mph - N/A   Clear
8:55 AM 19.4 °F 8.6 °F 12.2 °F 74% 30.77 in 10.0 mi NNW 9.2 mph - N/A   Clear
9:15 AM 19.4 °F 9.5 °F 12.2 °F 74% 30.77 in 10.0 mi NNW 8.1 mph - N/A   Clear
9:35 AM 21.2 °F 13.6 °F 14.0 °F 74% 30.76 in 10.0 mi WNW 5.8 mph - N/A   Clear
9:55 AM 21.2 °F 14.9 °F 14.0 °F 74% 30.76 in 10.0 mi Variable 4.6 mph - N/A   Clear
10:15 AM 23.0 °F 15.8 °F 14.0 °F 68% 30.77 in 10.0 mi NW 5.8 mph - N/A   Clear
10:35 AM 23.0 °F 14.7 °F 14.0 °F 68% 30.78 in 10.0 mi NW 6.9 mph - N/A   Clear
10:55 AM 24.8 °F 14.6 °F 14.0 °F 64% 30.77 in 10.0 mi WNW 10.4 mph - N/A   Clear
11:15 AM 24.8 °F 14.0 °F 15.8 °F 69% 30.76 in 10.0 mi West 11.5 mph - N/A   Clear
11:35 AM 24.8 °F 14.0 °F 12.2 °F 59% 30.75 in 10.0 mi WNW 11.5 mph - N/A   Clear
11:55 AM 24.8 °F 14.6 °F 14.0 °F 64% 30.74 in 10.0 mi WNW 10.4 mph 17.3 mph N/A   Clear
12:15 PM 24.8 °F 14.0 °F 14.0 °F 64% 30.74 in 10.0 mi WNW 11.5 mph 18.4 mph N/A   Unknown
12:35 PM 24.8 °F 14.6 °F 14.0 °F 64% 30.74 in 10.0 mi WNW 10.4 mph - N/A   Clear
12:55 PM 24.8 °F 14.0 °F 14.0 °F 64% 30.73 in 10.0 mi West 11.5 mph - N/A   Clear
1:15 PM 24.8 °F 14.6 °F 14.0 °F 64% 30.73 in 10.0 mi West 10.4 mph - N/A   Clear
1:35 PM 26.6 °F 17.5 °F 14.0 °F 59% 30.72 in 10.0 mi WNW 9.2 mph 16.1 mph N/A   Clear
1:55 PM 26.6 °F 16.2 °F 14.0 °F 59% 30.72 in 10.0 mi West 11.5 mph - N/A   Clear
2:15 PM 26.6 °F 15.2 °F 14.0 °F 59% 30.71 in 10.0 mi WNW 13.8 mph - N/A   Clear
2:35 PM 26.6 °F 16.2 °F 14.0 °F 59% 30.71 in 10.0 mi WNW 11.5 mph - N/A   Clear
2:55 PM 26.6 °F 16.8 °F 15.8 °F 64% 30.70 in 10.0 mi West 10.4 mph - N/A   Clear
3:15 PM 26.6 °F 21.2 °F 15.8 °F 64% 30.69 in 10.0 mi Variable 4.6 mph 16.1 mph N/A   Clear
3:35 PM 26.6 °F 16.2 °F 15.8 °F 64% 30.69 in 10.0 mi West 11.5 mph - N/A   Clear
3:55 PM 26.6 °F 17.5 °F 14.0 °F 59% 30.69 in 10.0 mi West 9.2 mph - N/A   Clear
4:15 PM 24.8 °F 15.3 °F 14.0 °F 64% 30.68 in 10.0 mi WNW 9.2 mph - N/A   Clear
4:35 PM 24.8 °F 15.3 °F 14.0 °F 64% 30.68 in 10.0 mi WNW 9.2 mph - N/A   Clear
4:55 PM 23.0 °F 15.8 °F 14.0 °F 68% 30.68 in 10.0 mi West 5.8 mph - N/A   Clear
5:15 PM 21.2 °F 14.9 °F 14.0 °F 74% 30.67 in 10.0 mi WNW 4.6 mph - N/A   Clear
5:35 PM 21.2 °F 14.9 °F 14.0 °F 74% 30.67 in 10.0 mi West 4.6 mph - N/A   Clear
5:55 PM 19.4 °F - 14.0 °F 80% 30.67 in 10.0 mi Calm Calm - N/A   Clear
6:15 PM 19.4 °F - 14.0 °F 80% 30.66 in 10.0 mi Calm Calm - N/A   Clear
6:35 PM 19.4 °F - 14.0 °F 80% 30.66 in 10.0 mi Calm Calm - N/A   Clear
6:55 PM 17.6 °F 10.7 °F 12.2 °F 79% 30.64 in 10.0 mi WSW 4.6 mph - N/A   Clear
7:15 PM 17.6 °F - 12.2 °F 79% 30.64 in 10.0 mi Calm Calm - N/A   Clear
7:35 PM 17.6 °F 12.3 °F 12.2 °F 79% 30.65 in 10.0 mi WNW 3.5 mph - N/A   Clear
7:55 PM 17.6 °F - 12.2 °F 79% 30.64 in 10.0 mi Calm Calm - N/A   Clear
8:15 PM 17.6 °F 10.7 °F 12.2 °F 79% 30.64 in 10.0 mi West 4.6 mph - N/A   Clear
8:35 PM 17.6 °F - 12.2 °F 79% 30.65 in 10.0 mi Calm Calm - N/A   Clear
8:55 PM 17.6 °F - 12.2 °F 79% 30.66 in 10.0 mi Calm Calm - N/A   Clear
9:15 PM 15.8 °F 8.6 °F 10.4 °F 79% 30.64 in 10.0 mi SSW 4.6 mph - N/A   Clear
9:35 PM 15.8 °F 8.6 °F 10.4 °F 79% 30.63 in 10.0 mi South 4.6 mph - N/A   Clear
9:55 PM 15.8 °F - 12.2 °F 86% 30.63 in 10.0 mi Calm Calm - N/A   Clear
10:15 PM 15.8 °F 10.2 °F 10.4 °F 79% 30.61 in 10.0 mi South 3.5 mph - N/A   Clear
10:35 PM 15.8 °F - 12.2 °F 86% 30.60 in 10.0 mi Calm Calm - N/A   Clear
10:55 PM 15.8 °F - 12.2 °F 86% 30.61 in 10.0 mi Calm Calm - N/A   Clear
11:15 PM 15.8 °F - 12.2 °F 86% 30.61 in 10.0 mi Calm Calm - N/A   Clear
11:35 PM 15.8 °F - 10.4 °F 79% 30.61 in 10.0 mi Calm Calm - N/A   Clear
11:55 PM 15.8 °F 8.6 °F 10.4 °F 79% 30.59 in 10.0 mi SSE 4.6 mph - N/A   Clear